Stocks held by SBI Large & Midcap Fund

#Stock NamePrevious Number of SharesPrevious DateCurrent Number of SharesPercentage ChangeLast Changed
1Delhivery Ltd4,000,0002024-07-217,470,50086.76%2024-07-22
2Abbott India Ltd52,3042024-07-21155,000196.34%2024-07-22
3Voltas Ltd2,503,0802024-07-213,800,00051.81%2024-07-22
4Torrent Pharmaceuticals Ltd390,5002024-07-21740,00289.50%2024-07-22
5Timken India Ltd1,134,2182024-07-21595,174-47.53%2024-07-22
6Indian Hotels Co Ltd11,548,9322024-07-215,600,000-51.51%2024-07-22
7Shree Cement Ltd300,0002024-07-21111,681-62.77%2024-07-22
8Relaxo Footwears Ltd8,430,7212024-07-211,295,914-84.63%2024-07-22
9Page Industries Ltd190,0002024-07-2172,230-61.98%2024-07-22
10Neogen Chemicals Ltd427,5772024-07-21935,051118.69%2024-07-22
11National Aluminium Company Ltd6,847,5002024-07-2128,995,000323.44%2024-07-22
12Muthoot Finance Ltd15,300,0002024-07-212,647,601-82.70%2024-07-22
13Max Healthcare Institute Ltd4,500,0002024-07-213,679,076-18.24%2024-07-22
14Lemon Tree Hotels Ltd11,032,7392024-07-2110,000,000-9.36%2024-07-22
15LTIMindtree Ltd487,7582024-07-21470,000-3.64%2024-07-22
16Kajaria Ceramics Ltd1,451,3462024-07-212,594,82678.79%2024-07-22
17Jindal Steel & Power Ltd2,777,5002024-07-212,849,4122.59%2024-07-22
18Ingersoll-Rand (India) Ltd14,5002024-07-21908,9826,168.84%2024-07-22
19HDFC Asset Management Company Ltd2,900,0002024-07-211,704,566-41.22%2024-07-22
20HDFC Life Insurance Company Ltd5,900,0002024-07-213,800,000-35.59%2024-07-22
21Gland Pharma Ltd1,696,9332024-07-212,000,00017.86%2024-07-22
22Ganesha Ecosphere Ltd206,1582024-07-21930,776351.49%2024-07-22
23Fortis Healthcare Ltd12,253,2752024-07-217,400,000-39.61%2024-07-22
24Finolex Industries Ltd1,395,1072024-07-211,388,764-0.45%2024-07-22
25Emami Ltd7,360,2522024-07-216,500,000-11.69%2024-07-22
26Dr Lal Pathlabs Ltd388,8082024-07-21650,00067.18%2024-07-22
27Blue Star Ltd2,769,3952024-07-211,579,376-42.97%2024-07-22
28Bajaj Auto Ltd391,0422024-07-21362,500-7.30%2024-07-22
29Ashok Leyland Ltd18,247,5002024-07-2111,000,000-39.72%2024-07-22
30Andhra Paper Ltd330,9552024-07-18330,9550.00%2024-07-22
31AIA Engineering Ltd462,7632024-07-21740,00059.91%2024-07-22
32ACC Ltd450,0002024-07-211,358,440201.88%2024-07-22
33Hatsun Agro Product Ltd8,786,6802024-07-211,475,794-83.20%2024-07-22

About the Author

Author Avatar
Getaka

Getaka, CFA, a financial analyst with 15 years of experience in the industry. Getaka holds an MBA degree and the Chartered Financial Analyst designation, demonstrating his profound understanding of financial analysis and investment management. Throughout his career, he has conducted numerous financial analyses and due diligence processes for companies in the industry, and has a strong track record of identifying key trends and opportunities. He leverages his expertise to deliver a thorough financial analysis of a company, encompassing its financial performance, key ratios, future prospects, and risks. Getaka is committed to providing accurate, reliable, and trustworthy information to help readers make informed decisions about their finances and investments.